sensor_id;sensor_type;location;lat;lon;timestamp;temperature;humidity
27797;DHT22;15177;50.844;4.412;2022-09-24T00:00:30;16.10;99.90
27797;DHT22;15177;50.844;4.412;2022-09-24T00:02:55;16.20;99.90
27797;DHT22;15177;50.844;4.412;2022-09-24T00:05:21;16.20;99.90
27797;DHT22;15177;50.844;4.412;2022-09-24T00:07:47;16.20;99.90
27797;DHT22;15177;50.844;4.412;2022-09-24T00:10:12;16.20;99.90
27797;DHT22;15177;50.844;4.412;2022-09-24T00:12:38;16.10;99.90
27797;DHT22;15177;50.844;4.412;2022-09-24T00:15:04;16.10;99.90
27797;DHT22;15177;50.844;4.412;2022-09-24T00:17:30;16.00;99.90
27797;DHT22;15177;50.844;4.412;2022-09-24T00:19:56;16.00;99.90
27797;DHT22;15177;50.844;4.412;2022-09-24T00:22:22;16.00;99.90
27797;DHT22;15177;50.844;4.412;2022-09-24T00:24:48;16.00;99.90
27797;DHT22;15177;50.844;4.412;2022-09-24T00:27:32;16.00;99.90
27797;DHT22;15177;50.844;4.412;2022-09-24T00:29:57;16.20;99.90
27797;DHT22;15177;50.844;4.412;2022-09-24T00:32:23;16.00;99.90
27797;DHT22;15177;50.844;4.412;2022-09-24T00:34:49;16.00;99.90
27797;DHT22;15177;50.844;4.412;2022-09-24T00:37:19;15.90;99.90
27797;DHT22;15177;50.844;4.412;2022-09-24T00:39:45;15.90;99.90
27797;DHT22;15177;50.844;4.412;2022-09-24T00:42:11;15.90;99.90
27797;DHT22;15177;50.844;4.412;2022-09-24T00:47:34;15.90;99.90
27797;DHT22;15177;50.844;4.412;2022-09-24T00:52:43;15.40;99.90
27797;DHT22;15177;50.844;4.412;2022-09-24T00:55:10;15.50;99.90
27797;DHT22;15177;50.844;4.412;2022-09-24T00:57:37;15.40;99.90
27797;DHT22;15177;50.844;4.412;2022-09-24T01:00:05;15.60;99.90
27797;DHT22;15177;50.844;4.412;2022-09-24T01:02:35;15.60;99.90
27797;DHT22;15177;50.844;4.412;2022-09-24T01:05:02;15.80;99.90
27797;DHT22;15177;50.844;4.412;2022-09-24T01:07:28;15.70;99.90
27797;DHT22;15177;50.844;4.412;2022-09-24T01:09:54;15.60;99.90
27797;DHT22;15177;50.844;4.412;2022-09-24T01:12:41;15.50;99.90
27797;DHT22;15177;50.844;4.412;2022-09-24T01:15:27;15.60;99.90
27797;DHT22;15177;50.844;4.412;2022-09-24T01:17:57;15.80;99.90
27797;DHT22;15177;50.844;4.412;2022-09-24T01:23:20;15.60;99.90
27797;DHT22;15177;50.844;4.412;2022-09-24T01:31:28;15.60;99.90
27797;DHT22;15177;50.844;4.412;2022-09-24T01:33:57;15.70;99.90
27797;DHT22;15177;50.844;4.412;2022-09-24T01:36:26;15.70;99.90
27797;DHT22;15177;50.844;4.412;2022-09-24T01:38:54;15.60;99.90
27797;DHT22;15177;50.844;4.412;2022-09-24T01:41:23;15.60;99.90
27797;DHT22;15177;50.844;4.412;2022-09-24T01:43:49;15.50;99.90
27797;DHT22;15177;50.844;4.412;2022-09-24T01:46:15;15.60;99.90
27797;DHT22;15177;50.844;4.412;2022-09-24T01:48:44;15.60;99.90
27797;DHT22;15177;50.844;4.412;2022-09-24T01:51:24;15.60;99.90
27797;DHT22;15177;50.844;4.412;2022-09-24T01:54:04;15.60;99.90
27797;DHT22;15177;50.844;4.412;2022-09-24T01:56:51;15.60;99.90
27797;DHT22;15177;50.844;4.412;2022-09-24T01:59:37;15.60;99.90
27797;DHT22;15177;50.844;4.412;2022-09-24T02:02:27;15.60;99.90
27797;DHT22;15177;50.844;4.412;2022-09-24T02:10:47;15.60;99.90
27797;DHT22;15177;50.844;4.412;2022-09-24T02:13:16;15.60;99.90
27797;DHT22;15177;50.844;4.412;2022-09-24T02:15:47;15.60;99.90
27797;DHT22;15177;50.844;4.412;2022-09-24T02:18:17;15.60;99.90
27797;DHT22;15177;50.844;4.412;2022-09-24T02:20:45;15.60;99.90
27797;DHT22;15177;50.844;4.412;2022-09-24T02:23:13;15.60;99.90
27797;DHT22;15177;50.844;4.412;2022-09-24T02:26:20;15.60;99.90
27797;DHT22;15177;50.844;4.412;2022-09-24T02:28:39;15.70;99.90
27797;DHT22;15177;50.844;4.412;2022-09-24T02:31:20;15.70;99.90
27797;DHT22;15177;50.844;4.412;2022-09-24T02:33:49;15.60;99.90
27797;DHT22;15177;50.844;4.412;2022-09-24T02:36:35;15.60;99.90
27797;DHT22;15177;50.844;4.412;2022-09-24T02:39:01;15.60;99.90
27797;DHT22;15177;50.844;4.412;2022-09-24T02:41:28;15.60;99.90
27797;DHT22;15177;50.844;4.412;2022-09-24T02:43:54;15.60;99.90
27797;DHT22;15177;50.844;4.412;2022-09-24T02:46:20;15.60;99.90
27797;DHT22;15177;50.844;4.412;2022-09-24T02:48:45;15.50;99.90
27797;DHT22;15177;50.844;4.412;2022-09-24T02:51:11;15.50;99.90
27797;DHT22;15177;50.844;4.412;2022-09-24T02:53:37;15.50;99.90
27797;DHT22;15177;50.844;4.412;2022-09-24T02:56:03;15.50;99.90
27797;DHT22;15177;50.844;4.412;2022-09-24T02:58:29;15.50;99.90
27797;DHT22;15177;50.844;4.412;2022-09-24T03:00:55;15.50;99.90
27797;DHT22;15177;50.844;4.412;2022-09-24T03:03:22;15.50;99.90
27797;DHT22;15177;50.844;4.412;2022-09-24T03:05:52;15.40;99.90
27797;DHT22;15177;50.844;4.412;2022-09-24T03:08:20;15.40;99.90
27797;DHT22;15177;50.844;4.412;2022-09-24T03:10:47;15.40;99.90
27797;DHT22;15177;50.844;4.412;2022-09-24T03:13:13;15.40;99.90
27797;DHT22;15177;50.844;4.412;2022-09-24T03:15:38;15.30;99.90
27797;DHT22;15177;50.844;4.412;2022-09-24T03:18:05;15.40;99.90
27797;DHT22;15177;50.844;4.412;2022-09-24T03:20:31;15.30;99.90
27797;DHT22;15177;50.844;4.412;2022-09-24T03:22:57;15.40;99.90
27797;DHT22;15177;50.844;4.412;2022-09-24T03:25:23;15.40;99.90
27797;DHT22;15177;50.844;4.412;2022-09-24T03:27:49;15.40;99.90
27797;DHT22;15177;50.844;4.412;2022-09-24T03:30:15;15.30;99.90
27797;DHT22;15177;50.844;4.412;2022-09-24T03:32:59;15.30;99.90
27797;DHT22;15177;50.844;4.412;2022-09-24T03:35:25;15.40;99.90
27797;DHT22;15177;50.844;4.412;2022-09-24T03:37:50;15.30;99.90
27797;DHT22;15177;50.844;4.412;2022-09-24T03:40:16;15.20;99.90
27797;DHT22;15177;50.844;4.412;2022-09-24T03:42:42;15.20;99.90
27797;DHT22;15177;50.844;4.412;2022-09-24T03:45:09;15.20;99.90
27797;DHT22;15177;50.844;4.412;2022-09-24T03:47:34;15.10;99.90
27797;DHT22;15177;50.844;4.412;2022-09-24T03:50:00;15.10;99.90
27797;DHT22;15177;50.844;4.412;2022-09-24T03:52:27;15.10;99.90
27797;DHT22;15177;50.844;4.412;2022-09-24T03:54:54;15.10;99.90
27797;DHT22;15177;50.844;4.412;2022-09-24T03:57:19;15.10;99.90
27797;DHT22;15177;50.844;4.412;2022-09-24T03:59:45;15.00;99.90
27797;DHT22;15177;50.844;4.412;2022-09-24T04:02:11;15.10;99.90
27797;DHT22;15177;50.844;4.412;2022-09-24T04:04:37;15.20;99.90
27797;DHT22;15177;50.844;4.412;2022-09-24T04:07:03;15.20;99.90
27797;DHT22;15177;50.844;4.412;2022-09-24T04:09:29;15.20;99.90
27797;DHT22;15177;50.844;4.412;2022-09-24T04:11:55;15.10;99.90
27797;DHT22;15177;50.844;4.412;2022-09-24T04:14:22;15.10;99.90
27797;DHT22;15177;50.844;4.412;2022-09-24T04:16:47;15.10;99.90
27797;DHT22;15177;50.844;4.412;2022-09-24T04:19:14;15.10;99.90
27797;DHT22;15177;50.844;4.412;2022-09-24T04:21:44;15.10;99.90
27797;DHT22;15177;50.844;4.412;2022-09-24T04:24:10;15.20;99.90
27797;DHT22;15177;50.844;4.412;2022-09-24T04:26:36;15.10;99.90
27797;DHT22;15177;50.844;4.412;2022-09-24T04:29:03;15.10;99.90
27797;DHT22;15177;50.844;4.412;2022-09-24T04:31:29;15.10;99.90
27797;DHT22;15177;50.844;4.412;2022-09-24T04:33:57;15.10;99.90
27797;DHT22;15177;50.844;4.412;2022-09-24T04:36:22;15.00;99.90
27797;DHT22;15177;50.844;4.412;2022-09-24T04:38:48;15.10;99.90
27797;DHT22;15177;50.844;4.412;2022-09-24T04:41:16;15.20;99.90
27797;DHT22;15177;50.844;4.412;2022-09-24T04:43:42;15.20;99.90
27797;DHT22;15177;50.844;4.412;2022-09-24T04:46:11;15.10;99.90
27797;DHT22;15177;50.844;4.412;2022-09-24T04:48:37;15.00;99.90
27797;DHT22;15177;50.844;4.412;2022-09-24T04:51:05;15.10;99.90
27797;DHT22;15177;50.844;4.412;2022-09-24T04:53:32;15.10;99.90
27797;DHT22;15177;50.844;4.412;2022-09-24T04:55:58;15.00;99.90
27797;DHT22;15177;50.844;4.412;2022-09-24T04:58:25;15.10;99.90
27797;DHT22;15177;50.844;4.412;2022-09-24T05:00:52;15.10;99.90
27797;DHT22;15177;50.844;4.412;2022-09-24T05:03:18;15.10;99.90
27797;DHT22;15177;50.844;4.412;2022-09-24T05:05:45;15.10;99.90
27797;DHT22;15177;50.844;4.412;2022-09-24T05:08:11;15.10;99.90
27797;DHT22;15177;50.844;4.412;2022-09-24T05:10:38;15.10;99.90
27797;DHT22;15177;50.844;4.412;2022-09-24T05:13:04;15.00;99.90
27797;DHT22;15177;50.844;4.412;2022-09-24T05:15:30;15.00;99.90
27797;DHT22;15177;50.844;4.412;2022-09-24T05:17:56;15.00;99.90
27797;DHT22;15177;50.844;4.412;2022-09-24T05:20:22;15.10;99.90
27797;DHT22;15177;50.844;4.412;2022-09-24T05:22:48;15.10;99.90
27797;DHT22;15177;50.844;4.412;2022-09-24T05:25:15;15.20;99.90
27797;DHT22;15177;50.844;4.412;2022-09-24T05:27:45;15.10;99.90
27797;DHT22;15177;50.844;4.412;2022-09-24T05:30:11;15.10;99.90
27797;DHT22;15177;50.844;4.412;2022-09-24T05:32:37;15.10;99.90
27797;DHT22;15177;50.844;4.412;2022-09-24T05:35:02;15.20;99.90
27797;DHT22;15177;50.844;4.412;2022-09-24T05:37:28;15.20;99.90
27797;DHT22;15177;50.844;4.412;2022-09-24T05:39:54;15.10;99.90
27797;DHT22;15177;50.844;4.412;2022-09-24T05:42:20;15.10;99.90
27797;DHT22;15177;50.844;4.412;2022-09-24T05:44:46;15.20;99.90
27797;DHT22;15177;50.844;4.412;2022-09-24T05:47:12;15.00;99.90
27797;DHT22;15177;50.844;4.412;2022-09-24T05:49:38;15.00;99.90
27797;DHT22;15177;50.844;4.412;2022-09-24T05:52:03;15.00;99.90
27797;DHT22;15177;50.844;4.412;2022-09-24T05:54:29;15.20;99.90
27797;DHT22;15177;50.844;4.412;2022-09-24T05:56:55;15.00;99.90
27797;DHT22;15177;50.844;4.412;2022-09-24T05:59:20;15.00;99.90
27797;DHT22;15177;50.844;4.412;2022-09-24T06:01:46;15.10;99.90
27797;DHT22;15177;50.844;4.412;2022-09-24T06:04:13;15.10;99.90
27797;DHT22;15177;50.844;4.412;2022-09-24T06:06:39;15.10;99.90
27797;DHT22;15177;50.844;4.412;2022-09-24T06:09:04;15.10;99.90
27797;DHT22;15177;50.844;4.412;2022-09-24T06:11:31;15.10;99.90
27797;DHT22;15177;50.844;4.412;2022-09-24T06:14:02;15.10;99.90
27797;DHT22;15177;50.844;4.412;2022-09-24T06:16:31;15.10;99.90
27797;DHT22;15177;50.844;4.412;2022-09-24T06:18:58;15.10;99.90
27797;DHT22;15177;50.844;4.412;2022-09-24T06:21:23;15.10;99.90
27797;DHT22;15177;50.844;4.412;2022-09-24T06:23:49;15.20;99.90
27797;DHT22;15177;50.844;4.412;2022-09-24T06:26:14;15.20;99.90
27797;DHT22;15177;50.844;4.412;2022-09-24T06:28:40;15.20;99.90
27797;DHT22;15177;50.844;4.412;2022-09-24T06:31:07;15.10;99.90
27797;DHT22;15177;50.844;4.412;2022-09-24T06:33:34;15.20;99.90
27797;DHT22;15177;50.844;4.412;2022-09-24T06:36:01;15.20;99.90
27797;DHT22;15177;50.844;4.412;2022-09-24T06:38:27;15.20;99.90
27797;DHT22;15177;50.844;4.412;2022-09-24T06:41:00;15.30;99.90
27797;DHT22;15177;50.844;4.412;2022-09-24T06:43:26;15.30;99.90
27797;DHT22;15177;50.844;4.412;2022-09-24T06:45:56;15.20;99.90
27797;DHT22;15177;50.844;4.412;2022-09-24T06:48:22;15.20;99.90
27797;DHT22;15177;50.844;4.412;2022-09-24T06:50:49;15.30;99.90
27797;DHT22;15177;50.844;4.412;2022-09-24T06:53:19;15.20;99.90
27797;DHT22;15177;50.844;4.412;2022-09-24T06:55:44;15.20;99.90
27797;DHT22;15177;50.844;4.412;2022-09-24T06:58:12;15.20;99.90
27797;DHT22;15177;50.844;4.412;2022-09-24T07:00:40;15.20;99.90
27797;DHT22;15177;50.844;4.412;2022-09-24T07:03:12;15.20;99.90
27797;DHT22;15177;50.844;4.412;2022-09-24T07:05:39;15.20;99.90
27797;DHT22;15177;50.844;4.412;2022-09-24T07:08:05;15.30;99.90
27797;DHT22;15177;50.844;4.412;2022-09-24T07:10:31;15.30;99.90
27797;DHT22;15177;50.844;4.412;2022-09-24T07:12:56;15.40;99.90
27797;DHT22;15177;50.844;4.412;2022-09-24T07:15:22;15.40;99.90
27797;DHT22;15177;50.844;4.412;2022-09-24T07:17:47;15.30;99.90
27797;DHT22;15177;50.844;4.412;2022-09-24T07:20:13;15.20;99.90
27797;DHT22;15177;50.844;4.412;2022-09-24T07:22:40;15.10;99.90
27797;DHT22;15177;50.844;4.412;2022-09-24T07:25:09;15.20;99.90
27797;DHT22;15177;50.844;4.412;2022-09-24T07:27:36;15.20;99.90
27797;DHT22;15177;50.844;4.412;2022-09-24T07:30:04;15.30;99.90
27797;DHT22;15177;50.844;4.412;2022-09-24T07:32:30;15.30;99.90
27797;DHT22;15177;50.844;4.412;2022-09-24T07:34:56;15.30;99.90
27797;DHT22;15177;50.844;4.412;2022-09-24T07:37:21;15.40;99.90
27797;DHT22;15177;50.844;4.412;2022-09-24T07:39:47;15.50;99.90
27797;DHT22;15177;50.844;4.412;2022-09-24T07:42:13;15.40;99.90
27797;DHT22;15177;50.844;4.412;2022-09-24T07:44:38;15.50;99.90
27797;DHT22;15177;50.844;4.412;2022-09-24T07:47:04;15.50;99.90
27797;DHT22;15177;50.844;4.412;2022-09-24T07:49:30;15.50;99.90
27797;DHT22;15177;50.844;4.412;2022-09-24T07:51:57;15.40;99.90
27797;DHT22;15177;50.844;4.412;2022-09-24T07:54:23;15.40;99.90
27797;DHT22;15177;50.844;4.412;2022-09-24T07:56:49;15.50;99.90
27797;DHT22;15177;50.844;4.412;2022-09-24T07:59:14;15.50;99.90
27797;DHT22;15177;50.844;4.412;2022-09-24T08:01:40;15.50;99.90
27797;DHT22;15177;50.844;4.412;2022-09-24T08:04:06;15.40;99.90
27797;DHT22;15177;50.844;4.412;2022-09-24T08:06:36;15.50;99.90
27797;DHT22;15177;50.844;4.412;2022-09-24T08:09:03;15.60;99.90
27797;DHT22;15177;50.844;4.412;2022-09-24T08:11:29;15.60;99.90
27797;DHT22;15177;50.844;4.412;2022-09-24T08:13:55;15.70;99.90
27797;DHT22;15177;50.844;4.412;2022-09-24T08:16:23;15.70;99.90
27797;DHT22;15177;50.844;4.412;2022-09-24T08:18:50;15.90;99.90
27797;DHT22;15177;50.844;4.412;2022-09-24T08:21:15;15.90;99.90
27797;DHT22;15177;50.844;4.412;2022-09-24T08:23:42;15.90;99.90
27797;DHT22;15177;50.844;4.412;2022-09-24T08:26:10;15.90;99.90
27797;DHT22;15177;50.844;4.412;2022-09-24T08:28:38;15.80;99.90
27797;DHT22;15177;50.844;4.412;2022-09-24T08:31:07;15.90;99.90
27797;DHT22;15177;50.844;4.412;2022-09-24T08:33:35;15.90;99.90
27797;DHT22;15177;50.844;4.412;2022-09-24T08:36:04;16.00;99.90
27797;DHT22;15177;50.844;4.412;2022-09-24T08:38:31;15.90;99.90
27797;DHT22;15177;50.844;4.412;2022-09-24T08:46:33;15.90;99.90
27797;DHT22;15177;50.844;4.412;2022-09-24T08:49:28;15.80;99.90
27797;DHT22;15177;50.844;4.412;2022-09-24T08:54:28;15.80;99.90
27797;DHT22;15177;50.844;4.412;2022-09-24T08:56:55;15.80;99.90
27797;DHT22;15177;50.844;4.412;2022-09-24T08:59:32;15.90;99.90
27797;DHT22;15177;50.844;4.412;2022-09-24T09:07:59;15.90;99.90
27797;DHT22;15177;50.844;4.412;2022-09-24T09:10:36;15.90;99.90
27797;DHT22;15177;50.844;4.412;2022-09-24T09:15:42;15.90;99.90
27797;DHT22;15177;50.844;4.412;2022-09-24T09:18:22;16.00;99.90
27797;DHT22;15177;50.844;4.412;2022-09-24T09:20:50;16.00;99.90
27797;DHT22;15177;50.844;4.412;2022-09-24T09:23:38;16.10;99.90
27797;DHT22;15177;50.844;4.412;2022-09-24T09:26:10;16.10;99.90
27797;DHT22;15177;50.844;4.412;2022-09-24T09:28:36;16.20;99.90
27797;DHT22;15177;50.844;4.412;2022-09-24T09:31:27;16.20;99.90
27797;DHT22;15177;50.844;4.412;2022-09-24T09:34:28;16.20;99.90
27797;DHT22;15177;50.844;4.412;2022-09-24T09:37:28;16.20;99.90
27797;DHT22;15177;50.844;4.412;2022-09-24T09:40:11;16.20;99.90
27797;DHT22;15177;50.844;4.412;2022-09-24T09:42:41;16.20;99.90
27797;DHT22;15177;50.844;4.412;2022-09-24T09:48:09;16.40;99.90
27797;DHT22;15177;50.844;4.412;2022-09-24T09:50:40;16.40;99.90
27797;DHT22;15177;50.844;4.412;2022-09-24T09:53:17;16.50;99.90
27797;DHT22;15177;50.844;4.412;2022-09-24T09:56:23;16.50;99.90
27797;DHT22;15177;50.844;4.412;2022-09-24T09:58:44;16.60;99.90
27797;DHT22;15177;50.844;4.412;2022-09-24T10:01:14;16.60;99.90
27797;DHT22;15177;50.844;4.412;2022-09-24T10:06:28;16.60;99.90
27797;DHT22;15177;50.844;4.412;2022-09-24T10:09:16;16.50;99.90
27797;DHT22;15177;50.844;4.412;2022-09-24T10:11:47;16.40;99.90
27797;DHT22;15177;50.844;4.412;2022-09-24T10:14:16;16.40;99.90
27797;DHT22;15177;50.844;4.412;2022-09-24T10:16:51;16.40;99.90
27797;DHT22;15177;50.844;4.412;2022-09-24T10:19:21;16.50;99.90
27797;DHT22;15177;50.844;4.412;2022-09-24T10:21:48;16.40;99.90
27797;DHT22;15177;50.844;4.412;2022-09-24T10:24:21;16.30;99.90
27797;DHT22;15177;50.844;4.412;2022-09-24T10:26:48;16.30;99.90
27797;DHT22;15177;50.844;4.412;2022-09-24T10:29:32;16.10;99.90
27797;DHT22;15177;50.844;4.412;2022-09-24T10:32:20;16.20;99.90
27797;DHT22;15177;50.844;4.412;2022-09-24T10:35:03;16.20;99.90
27797;DHT22;15177;50.844;4.412;2022-09-24T10:37:52;16.20;99.90
27797;DHT22;15177;50.844;4.412;2022-09-24T10:40:24;16.20;99.90
27797;DHT22;15177;50.844;4.412;2022-09-24T10:43:01;16.30;99.90
27797;DHT22;15177;50.844;4.412;2022-09-24T10:48:25;16.20;99.90
27797;DHT22;15177;50.844;4.412;2022-09-24T10:53:24;16.30;99.90
27797;DHT22;15177;50.844;4.412;2022-09-24T10:56:14;16.30;99.90
27797;DHT22;15177;50.844;4.412;2022-09-24T11:01:45;16.30;99.90
27797;DHT22;15177;50.844;4.412;2022-09-24T11:04:30;16.30;99.90
27797;DHT22;15177;50.844;4.412;2022-09-24T11:07:21;16.20;99.90
27797;DHT22;15177;50.844;4.412;2022-09-24T11:18:45;16.60;99.90
27797;DHT22;15177;50.844;4.412;2022-09-24T11:26:41;16.70;99.90
27797;DHT22;15177;50.844;4.412;2022-09-24T11:37:37;17.20;99.90
27797;DHT22;15177;50.844;4.412;2022-09-24T11:54:22;17.10;99.90
27797;DHT22;15177;50.844;4.412;2022-09-24T11:56:55;17.20;99.90
27797;DHT22;15177;50.844;4.412;2022-09-24T11:59:35;17.10;99.90
27797;DHT22;15177;50.844;4.412;2022-09-24T12:02:18;17.10;99.90
27797;DHT22;15177;50.844;4.412;2022-09-24T12:05:02;17.10;99.90
27797;DHT22;15177;50.844;4.412;2022-09-24T12:07:36;17.10;99.90
27797;DHT22;15177;50.844;4.412;2022-09-24T12:10:28;17.00;99.90
27797;DHT22;15177;50.844;4.412;2022-09-24T12:13:46;17.00;99.90
27797;DHT22;15177;50.844;4.412;2022-09-24T12:15:53;17.10;99.90
27797;DHT22;15177;50.844;4.412;2022-09-24T12:18:32;16.70;99.90
27797;DHT22;15177;50.844;4.412;2022-09-24T12:21:05;16.70;99.90
27797;DHT22;15177;50.844;4.412;2022-09-24T12:23:37;16.70;99.90
27797;DHT22;15177;50.844;4.412;2022-09-24T12:26:04;16.70;99.90
27797;DHT22;15177;50.844;4.412;2022-09-24T12:29:12;16.70;99.90
27797;DHT22;15177;50.844;4.412;2022-09-24T12:35:13;16.70;99.90
27797;DHT22;15177;50.844;4.412;2022-09-24T12:37:44;16.70;99.90
27797;DHT22;15177;50.844;4.412;2022-09-24T12:40:44;16.70;99.90
27797;DHT22;15177;50.844;4.412;2022-09-24T12:43:48;16.70;99.90
27797;DHT22;15177;50.844;4.412;2022-09-24T12:46:25;16.70;99.90
27797;DHT22;15177;50.844;4.412;2022-09-24T12:48:53;16.70;99.90
27797;DHT22;15177;50.844;4.412;2022-09-24T12:51:19;16.80;99.90
27797;DHT22;15177;50.844;4.412;2022-09-24T12:53:58;16.70;99.90
27797;DHT22;15177;50.844;4.412;2022-09-24T12:56:28;16.80;99.90
27797;DHT22;15177;50.844;4.412;2022-09-24T12:58:55;16.90;99.90
27797;DHT22;15177;50.844;4.412;2022-09-24T13:01:28;17.00;99.90
27797;DHT22;15177;50.844;4.412;2022-09-24T13:04:24;17.00;99.90
27797;DHT22;15177;50.844;4.412;2022-09-24T13:06:51;17.00;99.90
27797;DHT22;15177;50.844;4.412;2022-09-24T13:09:37;17.00;99.90
27797;DHT22;15177;50.844;4.412;2022-09-24T13:14:59;17.10;99.90
27797;DHT22;15177;50.844;4.412;2022-09-24T13:17:30;17.10;99.90
27797;DHT22;15177;50.844;4.412;2022-09-24T13:19:59;17.00;99.90
27797;DHT22;15177;50.844;4.412;2022-09-24T13:22:30;17.00;99.90
27797;DHT22;15177;50.844;4.412;2022-09-24T13:27:38;16.90;99.90
27797;DHT22;15177;50.844;4.412;2022-09-24T13:35:43;16.90;99.90
27797;DHT22;15177;50.844;4.412;2022-09-24T13:38:20;16.90;99.90
27797;DHT22;15177;50.844;4.412;2022-09-24T13:40:59;16.70;99.90
27797;DHT22;15177;50.844;4.412;2022-09-24T13:43:37;16.70;99.90
27797;DHT22;15177;50.844;4.412;2022-09-24T13:46:11;16.70;99.90
27797;DHT22;15177;50.844;4.412;2022-09-24T13:48:56;16.70;99.90
27797;DHT22;15177;50.844;4.412;2022-09-24T13:51:27;16.70;99.90
27797;DHT22;15177;50.844;4.412;2022-09-24T13:56:38;16.80;99.90
27797;DHT22;15177;50.844;4.412;2022-09-24T13:59:09;16.90;99.90
27797;DHT22;15177;50.844;4.412;2022-09-24T14:01:42;16.90;99.90
27797;DHT22;15177;50.844;4.412;2022-09-24T14:04:19;17.00;99.90
27797;DHT22;15177;50.844;4.412;2022-09-24T14:06:53;17.00;99.90
27797;DHT22;15177;50.844;4.412;2022-09-24T14:09:34;16.90;99.90
27797;DHT22;15177;50.844;4.412;2022-09-24T14:12:22;16.80;99.90
27797;DHT22;15177;50.844;4.412;2022-09-24T14:14:54;16.90;99.90
27797;DHT22;15177;50.844;4.412;2022-09-24T14:17:23;16.90;99.90
27797;DHT22;15177;50.844;4.412;2022-09-24T14:19:56;17.00;99.90
27797;DHT22;15177;50.844;4.412;2022-09-24T14:22:35;17.00;99.90
27797;DHT22;15177;50.844;4.412;2022-09-24T14:25:17;16.80;99.90
27797;DHT22;15177;50.844;4.412;2022-09-24T14:27:46;16.80;99.90
27797;DHT22;15177;50.844;4.412;2022-09-24T14:30:24;16.90;99.90
27797;DHT22;15177;50.844;4.412;2022-09-24T14:32:56;16.90;99.90
27797;DHT22;15177;50.844;4.412;2022-09-24T14:35:37;16.80;99.90
27797;DHT22;15177;50.844;4.412;2022-09-24T14:38:07;16.80;99.90
27797;DHT22;15177;50.844;4.412;2022-09-24T14:40:51;16.80;99.90
27797;DHT22;15177;50.844;4.412;2022-09-24T14:43:42;16.80;99.90
27797;DHT22;15177;50.844;4.412;2022-09-24T14:46:27;16.70;99.90
27797;DHT22;15177;50.844;4.412;2022-09-24T14:49:17;16.50;99.90
27797;DHT22;15177;50.844;4.412;2022-09-24T14:52:04;16.50;99.90
27797;DHT22;15177;50.844;4.412;2022-09-24T14:54:35;16.50;99.90
27797;DHT22;15177;50.844;4.412;2022-09-24T14:59:43;16.30;99.90
27797;DHT22;15177;50.844;4.412;2022-09-24T15:04:55;16.20;99.90
27797;DHT22;15177;50.844;4.412;2022-09-24T15:07:28;16.20;99.90
27797;DHT22;15177;50.844;4.412;2022-09-24T15:09:56;16.10;99.90
27797;DHT22;15177;50.844;4.412;2022-09-24T15:15:02;16.20;99.90
27797;DHT22;15177;50.844;4.412;2022-09-24T15:17:33;16.20;99.90
27797;DHT22;15177;50.844;4.412;2022-09-24T15:20:00;16.20;99.90
27797;DHT22;15177;50.844;4.412;2022-09-24T15:22:27;16.30;99.90
27797;DHT22;15177;50.844;4.412;2022-09-24T15:24:54;16.40;99.90
27797;DHT22;15177;50.844;4.412;2022-09-24T15:27:28;16.30;99.90
27797;DHT22;15177;50.844;4.412;2022-09-24T15:29:55;16.30;99.90
27797;DHT22;15177;50.844;4.412;2022-09-24T15:32:25;16.30;99.90
27797;DHT22;15177;50.844;4.412;2022-09-24T15:34:51;16.30;99.90
27797;DHT22;15177;50.844;4.412;2022-09-24T15:37:20;16.30;99.90
27797;DHT22;15177;50.844;4.412;2022-09-24T15:39:47;16.30;99.90
27797;DHT22;15177;50.844;4.412;2022-09-24T15:44:42;16.20;99.90
27797;DHT22;15177;50.844;4.412;2022-09-24T15:47:08;16.10;99.90
27797;DHT22;15177;50.844;4.412;2022-09-24T15:49:34;16.10;99.90
27797;DHT22;15177;50.844;4.412;2022-09-24T15:52:21;16.10;99.90
27797;DHT22;15177;50.844;4.412;2022-09-24T15:54:55;16.10;99.90
27797;DHT22;15177;50.844;4.412;2022-09-24T15:57:22;16.20;99.90
27797;DHT22;15177;50.844;4.412;2022-09-24T15:59:48;16.20;99.90
27797;DHT22;15177;50.844;4.412;2022-09-24T16:02:25;16.10;99.90
27797;DHT22;15177;50.844;4.412;2022-09-24T16:04:53;16.10;99.90
27797;DHT22;15177;50.844;4.412;2022-09-24T16:07:19;16.10;99.90
27797;DHT22;15177;50.844;4.412;2022-09-24T16:09:44;16.20;99.90
27797;DHT22;15177;50.844;4.412;2022-09-24T16:12:15;16.10;99.90
27797;DHT22;15177;50.844;4.412;2022-09-24T16:14:41;16.10;99.90
27797;DHT22;15177;50.844;4.412;2022-09-24T16:17:07;16.00;99.90
27797;DHT22;15177;50.844;4.412;2022-09-24T16:19:32;16.00;99.90
27797;DHT22;15177;50.844;4.412;2022-09-24T16:21:58;15.90;99.90
27797;DHT22;15177;50.844;4.412;2022-09-24T16:24:25;15.80;99.90
27797;DHT22;15177;50.844;4.412;2022-09-24T16:26:51;15.80;99.90
27797;DHT22;15177;50.844;4.412;2022-09-24T16:29:17;15.70;99.90
27797;DHT22;15177;50.844;4.412;2022-09-24T16:31:44;15.80;99.90
27797;DHT22;15177;50.844;4.412;2022-09-24T16:34:10;15.80;99.90
27797;DHT22;15177;50.844;4.412;2022-09-24T16:36:36;15.80;99.90
27797;DHT22;15177;50.844;4.412;2022-09-24T16:39:02;15.80;99.90
27797;DHT22;15177;50.844;4.412;2022-09-24T16:41:28;15.80;99.90
27797;DHT22;15177;50.844;4.412;2022-09-24T16:43:59;15.80;99.90
27797;DHT22;15177;50.844;4.412;2022-09-24T16:46:25;15.80;99.90
27797;DHT22;15177;50.844;4.412;2022-09-24T16:48:51;15.70;99.90
27797;DHT22;15177;50.844;4.412;2022-09-24T16:51:17;15.80;99.90
27797;DHT22;15177;50.844;4.412;2022-09-24T16:53:43;15.90;99.90
27797;DHT22;15177;50.844;4.412;2022-09-24T16:56:13;15.70;99.90
27797;DHT22;15177;50.844;4.412;2022-09-24T16:58:43;15.50;99.90
27797;DHT22;15177;50.844;4.412;2022-09-24T17:01:16;15.50;99.90
27797;DHT22;15177;50.844;4.412;2022-09-24T17:03:42;15.40;99.90
27797;DHT22;15177;50.844;4.412;2022-09-24T17:06:16;15.30;99.90
27797;DHT22;15177;50.844;4.412;2022-09-24T17:08:42;15.20;99.90
27797;DHT22;15177;50.844;4.412;2022-09-24T17:11:27;15.20;99.90
27797;DHT22;15177;50.844;4.412;2022-09-24T17:13:54;15.10;99.90
27797;DHT22;15177;50.844;4.412;2022-09-24T17:16:20;15.10;99.90
27797;DHT22;15177;50.844;4.412;2022-09-24T17:18:47;15.10;99.90
27797;DHT22;15177;50.844;4.412;2022-09-24T17:21:12;15.10;99.90
27797;DHT22;15177;50.844;4.412;2022-09-24T17:23:40;15.00;99.90
27797;DHT22;15177;50.844;4.412;2022-09-24T17:26:11;15.00;99.90
27797;DHT22;15177;50.844;4.412;2022-09-24T17:28:39;14.90;99.90
27797;DHT22;15177;50.844;4.412;2022-09-24T17:31:07;14.80;99.90
27797;DHT22;15177;50.844;4.412;2022-09-24T17:33:33;14.90;99.90
27797;DHT22;15177;50.844;4.412;2022-09-24T17:36:02;14.80;99.90
27797;DHT22;15177;50.844;4.412;2022-09-24T17:38:31;14.80;99.90
27797;DHT22;15177;50.844;4.412;2022-09-24T17:40:59;14.90;99.90
27797;DHT22;15177;50.844;4.412;2022-09-24T17:43:26;14.80;99.90
27797;DHT22;15177;50.844;4.412;2022-09-24T17:45:59;14.70;99.90